Event Mercenaries, Inc.

2015 Hickory Foundation YMCA Turkey Trot

Age Group Results

November 21, 2015


Results by Event Mercenaries, Inc.


Men: Top Finishers 0- 0 1-10 11-15 16-19 20-29 30-39 40-49 50-59 60-69 70-99
Women: Top Finishers 1-10 11-15 16-19 20-29 30-39 40-49 50-59 60-69

5K RUN

Top

Female Open Winners

Place Name City Bib No Age Overall Total Time Pace
1 Karina Coulter Hickory NC 378 12 13 22:23.6 7:13/M
Top

Male Open Winners

Place Name City Bib No Age Overall Total Time Pace
1 Jonathan Hata Hickory NC 483 42 1 19:13.6 6:12/M
Top

Male, Age Unknown

Place Name City Bib No Age Overall Total Time Pace
1 Unknown Partic. 448 448 148 32:46.5 10:34/M
Top

Female 10 and under

Place Name City Bib No Age Overall Total Time Pace
1 Davoney Dellinger Hickory NC 171 9 55 26:55.9 8:41/M
2 Ella Hitchcock Hickory NC 281 8 69 28:48.8 9:17/M
3 Juliette Hessong Hickory NC 353 10 78 29:20.5 9:28/M
4 Mikaela Mueller Hickory NC 837 10 79 29:24.0 9:29/M
5 Sarah Katy Hickory NC 176 9 85 29:34.0 9:32/M
6 Eunice Benitez Hickory NC 251 8 123 31:33.6 10:11/M
7 Bailey Watson Hickory NC 190 8 124 31:34.3 10:11/M
8 Jordyn Horan Hickory NC 118 9 129 31:50.7 10:16/M
9 Mebane White 205 10 138 32:13.6 10:24/M
10 Berkeley Geyer Hickory NC 199 10 140 32:31.6 10:29/M
11 Olivia Alala Hickory NC 106 7 150 33:11.6 10:42/M
12 Abbey Mills Hickory NC 462 9 156 33:37.9 10:51/M
13 Savannah Huckabee Hildebran NC 407 10 157 33:39.5 10:51/M
14 Emily Haas Granite Falls NC 136 8 189 35:08.2 11:20/M
15 Abby Haas Granite Falls NC 135 5 209 35:49.9 11:33/M
16 Mia Zulueta Hickory NC 269 9 220 37:10.1 11:59/M
17 Taylor Carey NC 170 8 225 37:21.1 12:03/M
18 Emily Peavy Hickory NC 187 10 233 38:04.5 12:17/M
19 Kennedy Miller Hickory NC 181 6 237 38:33.5 12:26/M
20 Sage Boston Hickory NC 252 9 247 39:36.0 12:46/M
21 Makenzie Elkins Hickory NC 174 8 252 39:39.8 12:47/M
22 Elena Covington Hickory NC 380 3 253 39:50.3 12:51/M
23 Kayla Covington Hickory NC 382 7 256 39:51.8 12:51/M
24 Lily Rogers NC 189 9 260 39:58.9 12:54/M
25 Faith O'Neill Hickory NC 183 9 263 40:03.5 12:55/M
26 Adysan Cook Taylorsville NC 112 10 281 41:34.0 13:25/M
27 Ariana Nieto Hickory NC 264 9 285 41:59.2 13:33/M
28 Isabella Kerr Hickory NC 476 8 298 43:17.7 13:58/M
29 Paige Bernas Hickory NC 128 8 307 44:00.8 14:12/M
30 Olivia Bumgarner Hickory NC 169 8 313 45:08.5 14:34/M
31 Emily Painchaud 185 10 316 45:30.3 14:41/M
32 Morgan Payne Hickory NC 265 8 318 46:02.7 14:51/M
33 Ashley MacEdo Hickory NC 262 9 341 49:48.3 16:04/M
34 Joanna MacEdo Hickory NC 263 9 343 50:03.5 16:09/M
35 Carolina De La Riva Hickory NC 255 10 346 50:04.1 16:09/M
36 Stella Branch Hickory NC 6 10 355 51:26.0 16:35/M
37 Zoe Norris Hickory NC 143 8 359 51:58.9 16:46/M
38 Reagan London NC 178 8 360 52:10.4 16:50/M
39 Grayson Rowe Newton NC 53 8 362 52:12.5 16:50/M
40 Ashton Rowe Newton NC 52 8 363 52:15.1 16:51/M
41 Carlee Baer Hickory NC 29 10 364 52:19.2 16:53/M
42 Charlotte Zagaroli Hickory NC 212 8 375 52:39.6 16:59/M
43 Skylar Cody NC 273 9 389 53:55.4 17:24/M
44 Gianna Ortiz NC 287 10 390 53:56.2 17:24/M
45 Arianna James Conover NC 260 9 402 55:26.6 17:53/M
46 Elliana Xiong Hickory NC 268 9 403 55:26.9 17:53/M
47 Abby Bumgarner 130 9 407 55:36.3 17:56/M
48 Teryn Hartis NC 139 9 408 55:37.4 17:56/M
49 Sierra Temple Hickory NC 204 7 423 58:01.1 18:43/M
50 Marceanna Heaggans Hickory NC 259 8 426 59:07.0 19:04/M
Top

Male 10 and under

Place Name City Bib No Age Overall Total Time Pace
1 Dakota Bollinger Morganton NC 67 9 15 23:02.5 7:26/M
2 Drew Hitchcock Hickory NC 280 10 18 23:24.7 7:33/M
3 Benjamin Fullwood Hickory NC 277 9 22 24:01.1 7:45/M
4 Alexander Condeelis Hickory NC 110 8 43 25:42.3 8:17/M
5 Kamden Whitfield Hickory NC 127 10 62 27:58.2 9:01/M
6 Landon Powell Hickory NC 454 7 101 30:25.3 9:49/M
7 Peter Zagaroli 213 10 142 32:38.8 10:32/M
8 Deke Young Hickory NC 206 10 143 32:41.1 10:33/M
9 Sam Harris 498 7 149 33:06.8 10:41/M
10 Colby Thompson Hickory NC 427 9 192 35:09.5 11:20/M
11 Charles Fields Hickory NC 393 9 199 35:31.8 11:27/M
12 Jb Young Hickory NC 207 7 201 35:37.1 11:29/M
13 Carson Duckworth Hickory NC 388 7 268 40:17.5 13:00/M
14 Henry Thompson Hickory NC 428 7 339 49:39.9 16:01/M
15 Jamilett Galvez Hickory NC 257 8 344 50:03.5 16:09/M
16 Kydd Norris NC 142 5 391 53:58.0 17:25/M
17 Zane Ortiz NC 289 5 393 54:08.7 17:28/M
Top

Female 11 to 15

Place Name City Bib No Age Overall Total Time Pace
1 Jane Worley Hickory NC 167 15 23 24:23.4 7:52/M
2 Libby Byrd Connelly Springs NC 474 12 24 24:24.4 7:52/M
3 Laney Dettelbach Hickory NC 196 13 34 24:53.5 8:02/M
4 Gillian Murdock Hickory NC 162 14 45 25:48.5 8:19/M
5 Kate Daniels Hickory NC 151 15 57 27:01.5 8:43/M
6 Mollie Monroe Hickory NC 453 11 60 27:23.5 8:50/M
7 Stirling Thompson Hickory NC 432 12 65 28:29.3 9:11/M
8 Valeria Hernandez-Pena Newton NC 402 11 71 29:03.9 9:22/M
9 Alexis Coffey Hickory NC 274 15 73 29:12.0 9:25/M
10 Addie Barrier Hickory NC 347 12 77 29:19.9 9:27/M
11 Nicole Kozischek Hickory NC 358 12 89 29:45.4 9:36/M
12 Andrea Bejenari Hickory NC 2 12 91 29:49.9 9:37/M
13 Alicia Ramirez Hickory NC 163 15 102 30:25.8 9:49/M
14 Madeline Stafford Hickory NC 16 14 130 31:51.4 10:16/M
15 Liza Sakhonenko Hickory NC 15 14 139 32:29.3 10:29/M
16 Lydia Huckabee Hildebran NC 406 12 160 33:40.6 10:52/M
17 Haley Walker Granite Falls NC 363 11 176 34:27.7 11:07/M
18 Mather Thompson Hickory NC 431 11 182 34:44.0 11:12/M
19 Layna West Taylorsville NC 481 12 185 35:03.9 11:18/M
20 Rachel Bishop Taylorsville NC 349 12 186 35:04.5 11:19/M
21 Keira Hirons Conover NC 354 12 191 35:09.2 11:20/M
22 Olivia Eaton Hickory NC 351 12 193 35:09.8 11:20/M
23 Emily Rollins Newton NC 485 13 198 35:25.3 11:25/M
24 Adair Melton Hickory NC 415 15 200 35:34.2 11:28/M
25 Emma Fuller Hickory NC 458 13 228 37:39.9 12:09/M
26 Victoria Charles Conover NC 37 11 235 38:32.9 12:26/M
27 Madeline Loy Newton NC 360 11 244 39:10.1 12:38/M
28 Graciela Mejia Hickory NC 11 13 246 39:34.5 12:46/M
29 Katelyn Cruise 465 14 279 41:28.3 13:23/M
30 Lizbeth Vazquez Hickory NC 18 13 287 42:18.4 13:39/M
31 Sara Warta Taylorsville NC 146 13 289 42:28.4 13:42/M
32 Shaylyn Finger Hickory NC 786 11 290 42:30.0 13:43/M
33 Caroline Wills Hickory NC 147 12 295 42:56.0 13:51/M
34 Jonellis Heredia Hickory NC 225 11 297 43:14.8 13:57/M
35 Megan Lucas-Viruel Hickory NC 10 13 309 44:10.5 14:15/M
36 Peyton Bollinger Morganton NC 68 14 352 51:17.3 16:33/M
37 Katherine Diamonti Hickory NC 154 14 401 55:04.9 17:46/M
38 Emma Yandle Conover NC 103 13 404 55:30.5 17:54/M
39 Madison Clark NC 220 15 409 55:47.1 18:00/M
40 Alaina Hollar Conover NC 227 15 410 55:47.3 18:00/M
41 Haylea Dollarhide NC 322 13 432 1:05:01.1 20:58/M
Top

Male 11 to 15

Place Name City Bib No Age Overall Total Time Pace
1 Ryan Farris Morganton NC 466 15 3 19:39.9 6:20/M
2 Grant Harper Hickory NC 400 14 6 20:57.6 6:45/M
3 Colby Shepler Hickory NC 164 14 7 20:58.0 6:46/M
4 Ryan Garland 468 15 8 22:02.0 7:06/M
5 Macgregor Vanbeurdew Hickory NC 473 13 10 22:11.9 7:09/M
6 Thomas Mills Hickory NC 464 12 17 23:14.2 7:30/M
7 Peter Shores Hickory NC 202 11 27 24:29.7 7:54/M
8 Austin Skoog Hickory NC 497 12 32 24:52.5 8:01/M
9 Benjamin Mills Hickory NC 461 12 33 24:53.0 8:02/M
10 Tyler Mills Hickory NC 463 12 37 24:57.0 8:03/M
11 Tripp Young Hickory NC 210 12 38 24:57.8 8:03/M
12 J Graham McIntosh Hickory NC 179 14 42 25:40.9 8:17/M
13 Mason Paladine Hickory NC 499 14 46 25:48.6 8:19/M
14 Zander Kerr Hickory NC 477 14 47 25:51.2 8:20/M
15 Riley Whitener Taylorsville NC 238 12 58 27:14.2 8:47/M
16 Henry Stewart Hickory NC 203 11 61 27:35.1 8:54/M
17 Will Banks Hickory NC 495 11 67 28:40.8 9:15/M
18 Lewis Tate Hickory NC 470 12 108 30:39.1 9:53/M
19 Barrett Geyer Hickory NC 198 12 164 33:47.9 10:54/M
20 Caleb Bost Hickory NC 219 11 184 34:58.1 11:17/M
21 Brady Shehan Granite Falls NC 89 14 188 35:08.1 11:20/M
22 Baylor Texer Hickory NC 290 11 202 35:37.8 11:29/M
23 Jon Dewitt Hickory NC 457 13 229 37:40.1 12:09/M
24 Josiah Chiles NC 270 11 249 39:37.0 12:47/M
25 Nicholas Niemczura Hickory NC 418 13 312 44:56.5 14:30/M
26 Alexander Xiong Conover NC 346 13 329 47:55.6 15:27/M
27 Dylan McDonald Taylorsville NC 46 14 348 50:06.0 16:10/M
28 Christopher Diamonti Hickory NC 152 12 351 50:40.8 16:21/M
29 Sullivan Johnson Hickory NC 160 12 370 52:32.6 16:57/M
30 Jacob Howard Hickory NC 41 11 399 54:59.1 17:44/M
31 Ryan Garland Hickory NC 339 11 412 56:09.1 18:07/M
Top

Female 16 to 19

Place Name City Bib No Age Overall Total Time Pace
1 Gwyneth Davidson Hickory NC 222 17 51 26:25.8 8:31/M
2 Olivia Belcher Hickory NC 149 16 56 27:01.3 8:43/M
3 Levi Childers NC 317 16 63 28:20.4 9:08/M
4 Courtney Kozischek Hickory NC 356 17 88 29:45.1 9:36/M
5 Lydia Black Hickory NC 150 16 100 30:25.2 9:49/M
6 Adrianna Mull NC 323 18 224 37:21.0 12:03/M
7 Ashton Cloer 467 16 277 41:21.7 13:20/M
8 Jessica Borowski NC 316 18 434 1:05:05.1 21:00/M
Top

Male 16 to 19

Place Name City Bib No Age Overall Total Time Pace
1 John Blankenship Hickory NC 218 16 39 25:06.0 8:06/M
2 Mason Shehan Granite Falls NC 91 18 112 30:49.5 9:56/M
3 Jack Temple Hickory NC 484 16 145 32:42.5 10:33/M
Top

Female 20 to 29

Place Name City Bib No Age Overall Total Time Pace
1 Kaitlyn Lail Hickory NC 247 25 72 29:08.3 9:24/M
2 Lindsay Atkin Hickory NC 366 25 84 29:33.3 9:32/M
3 Yingying Yan Conover NC 313 27 90 29:49.2 9:37/M
4 Robin Bentley Claremont NC 292 25 93 30:06.9 9:43/M
5 Madison Broome Hickory NC 20 21 95 30:22.5 9:48/M
6 Janie Dale Hickory NC 21 21 96 30:22.6 9:48/M
7 Rachel Johnson Leicester NC 283 25 98 30:24.2 9:48/M
8 Danny Campolieta NC 241 22 103 30:29.3 9:50/M
9 Lindsay Osburn NC 248 23 104 30:29.4 9:50/M
10 Elizabeth Phillips Connelly Springs NC 421 21 109 30:42.2 9:54/M
11 Brittany Reece Hickory NC 83 27 115 30:52.7 9:57/M
12 Dana Plummer NC 26 25 117 30:57.3 9:59/M
13 Megan Reaves-Binns Taylorsville NC 14 26 119 31:12.0 10:04/M
14 Kari Dunlap 443 28 134 32:08.9 10:22/M
15 Laura Beth Barnes Taylorsville NC 370 20 141 32:35.5 10:31/M
16 Lindsay Cash Hiddenite NC 373 21 153 33:29.1 10:48/M
17 Ashley Masters Hickory NC 413 28 154 33:31.5 10:49/M
18 Sara Masters Hickory NC 414 28 155 33:31.6 10:49/M
19 Tara Brackett Claremont NC 788 28 168 34:06.1 11:00/M
20 Ashlynn Wessollek NC 102 23 172 34:23.3 11:05/M
21 Breanna Hucks Claremont NC 228 29 179 34:35.6 11:09/M
22 Zongkor Yang Conover NC 315 29 181 34:42.9 11:12/M
23 Markeisha Haas-Elder Conover NC 296 29 210 35:50.5 11:34/M
24 Ashley Sweet Taylorsville NC 144 27 213 36:21.6 11:44/M
25 Sarah Cowell Stokesdale NC 491 28 214 36:48.8 11:52/M
26 Abbey Starnes Hickory NC 17 25 222 37:20.0 12:03/M
27 Ashton Wood Morganton NC 61 28 230 37:56.2 12:14/M
28 Gaoia Vang Conover NC 309 27 280 41:32.6 13:24/M
29 Marina Haddock NC 246 24 294 42:47.6 13:48/M
30 Patricia Parris 445 28 315 45:17.8 14:36/M
31 Skylar Church NC 134 20 328 47:33.2 15:20/M
32 Meredith Clay Hickory NC 254 29 354 51:24.2 16:35/M
33 Laura Thompson 437 24 377 52:42.0 17:00/M
34 Katrina Garrison 496 24 415 56:21.6 18:11/M
35 Brittney Church NC 132 24 437 1:05:43.7 21:12/M
Top

Male 20 to 29

Place Name City Bib No Age Overall Total Time Pace
1 Paarth Mehta NC 47 26 16 23:05.9 7:27/M
2 William Posey Hickory NC 422 28 25 24:28.2 7:54/M
3 Josh Watson Hickory NC 249 29 48 26:06.4 8:25/M
4 Cole Rogers Taylorsville NC 424 21 49 26:20.2 8:30/M
5 Anthony Laxton Hickory NC 333 25 50 26:23.5 8:31/M
6 Joel Vera Hickory NC 237 20 52 26:28.3 8:32/M
7 Aaron Plummer NC 25 25 116 30:57.1 9:59/M
8 Steven Reid Hickory NC 266 26 167 34:00.2 10:58/M
9 Timothy Cowell Stokesdale NC 492 28 215 36:49.7 11:53/M
10 Charlie Mullins Hickory NC 857 29 262 39:59.5 12:54/M
11 Jeremy Ku Hickory NC 332 28 267 40:13.9 12:58/M
12 Ben Haddock NC 245 27 293 42:47.1 13:48/M
13 Josh Whaley NC 28 24 376 52:41.5 17:00/M
14 Patrick Massa NC 140 21 436 1:05:42.4 21:12/M
Top

Female 30 to 39

Place Name City Bib No Age Overall Total Time Pace
1 Amy Phillips NC 201 31 19 23:30.5 7:35/M
2 Susan Bridges Hickory NC 372 38 40 25:09.6 8:07/M
3 Christie West Hickory NC 250 39 74 29:12.4 9:25/M
4 Suzzy Yang Connelly Springs NC 314 34 75 29:15.4 9:26/M
5 Sara Poovey Taylorsville NC 125 33 83 29:32.0 9:32/M
6 Maleena White Conover NC 310 34 87 29:36.4 9:33/M
7 Amy Haddock Hickory NC 244 33 99 30:25.0 9:49/M
8 Rachael Theisen Claremont NC 308 31 111 30:44.1 9:55/M
9 Cristy Whisnant Taylorsville NC 434 35 121 31:32.9 10:10/M
10 Charlene Beaver Vale NC 326 32 127 31:46.9 10:15/M
11 Emily Westmoreland Hickory NC 27 31 132 32:04.6 10:21/M
12 Crystal Spesert Newton NC 848 31 133 32:07.2 10:22/M
13 Sarah White Hickory NC 494 37 137 32:13.2 10:24/M
14 Michelle Gilmore Newton NC 395 35 144 32:41.4 10:33/M
15 Amanda Gibbons Conover NC 394 36 152 33:15.9 10:44/M
16 Kristin Huffman Hickory NC 121 39 158 33:39.7 10:51/M
17 Sabrina Cook 440 32 162 33:45.9 10:53/M
18 Alicia Huckabee Hildebran NC 405 38 170 34:10.5 11:01/M
19 Brandi Walker Granite Falls NC 362 30 175 34:27.6 11:07/M
20 Natasha Haas Granite Falls NC 137 32 208 35:48.9 11:33/M
21 Claudia Xiong Conover NC 311 35 217 37:03.1 11:57/M
22 Carrie Regan Hickory NC 84 38 219 37:09.2 11:59/M
23 Holly Poovey Newton NC 12 34 223 37:20.1 12:03/M
24 Elizabeth Sanchez Conover NC 302 37 226 37:27.8 12:05/M
25 Kelly Spoja Morganton NC 849 38 227 37:28.3 12:05/M
26 Deena Whitener Hickory NC 192 36 239 38:34.3 12:26/M
27 Courtney Thompson-Ballard Hickory NC 433 38 240 38:36.8 12:27/M
28 Gina Covington Hickory NC 381 37 254 39:50.8 12:51/M
29 Julie Bowman Claremont NC 4 36 261 39:59.1 12:54/M
30 Heather Warta Taylorsville NC 145 36 270 40:20.9 13:01/M
31 Tanisha Roberts Hickory NC 126 37 274 40:47.6 13:09/M
32 Jessica Cook Taylorsville NC 113 36 282 41:36.7 13:25/M
33 Kinley Cole NC 319 37 283 41:41.3 13:27/M
34 Elizabeth Howard Hickory NC 40 33 304 43:42.0 14:06/M
35 Amanda Digangi Statesville NC 256 35 310 44:17.7 14:17/M
36 Rebecca Messer Lincolnton NC 334 36 317 45:58.0 14:50/M
37 Jennifer Clark Lenoir NC 330 38 319 46:20.4 14:57/M
38 Lela Thompson Hickory NC 430 39 338 49:39.6 16:01/M
39 Elizabeth Rollins Hickory NC 267 36 347 50:05.4 16:09/M
40 Nicole Hopper Conover NC 24 30 357 51:30.8 16:37/M
41 Mindy Frye NC 175 31 361 52:11.6 16:50/M
42 Chong Cha Newton NC 294 31 383 53:07.0 17:08/M
43 Shonda Clark NC 221 35 384 53:32.0 17:16/M
44 Michele Bryson Hickory NC 337 39 388 53:52.0 17:23/M
45 Jax Norris 141 38 392 53:58.8 17:25/M
46 Skyla Vang Conover NC 345 35 413 56:14.0 18:08/M
47 Mary Beth Bumgarner NC 131 36 417 56:39.0 18:16/M
48 Janet Garland NC 338 35 422 56:57.7 18:22/M
49 Amy Sigmon NC 54 39 424 58:33.4 18:53/M
50 Dena Joyner 451 33 428 1:00:39.6 19:34/M
51 April Dollarhide NC 320 34 435 1:05:05.3 21:00/M
52 Leslie Mull NC 324 38 439 1:06:55.5 21:35/M
Top

Male 30 to 39

Place Name City Bib No Age Overall Total Time Pace
1 John Sullivan Conover NC 469 36 2 19:24.4 6:15/M
2 Chris Collins Hickory NC 375 32 4 19:55.0 6:25/M
3 Rogelio Sanchez Conover NC 303 36 14 22:26.0 7:14/M
4 Ed Coletti Newton NC 295 35 21 23:54.0 7:43/M
5 Barron Monroe III Hickory NC 48 35 28 24:36.7 7:56/M
6 Clifton Smith Greenville SC 482 35 44 25:42.9 8:17/M
7 Bobby Litton Newton NC 299 37 82 29:27.6 9:30/M
8 Patrick Miller Hickory NC 182 36 86 29:34.7 9:32/M
9 Tim Howard Hickory NC 403 39 120 31:13.7 10:04/M
10 Bradley Dunalp 442 30 128 31:47.4 10:15/M
11 Adam Huckabee Hildebran NC 404 37 169 34:10.2 11:01/M
12 Eric Dollarhide NC 321 38 171 34:13.3 11:02/M
13 Lawrence Thompson Hickory NC 429 39 195 35:10.0 11:21/M
14 Keven Green Hudson NC 396 38 204 35:40.7 11:30/M
15 Jody Elkins Hickory NC 173 38 251 39:39.1 12:47/M
16 Mark Covington Hickory NC 383 38 257 39:52.0 12:52/M
17 William O'Neill Hickory NC 184 36 264 40:03.6 12:55/M
18 Michael Benton Hickory NC 327 30 266 40:13.8 12:58/M
19 Aaron Haddock NC 243 35 292 42:45.9 13:47/M
20 Darren Kerr Hickory NC 475 37 299 43:17.9 13:58/M
21 Matt Childers NC 318 36 433 1:05:02.2 20:59/M
Top

Female 40 to 49

Place Name City Bib No Age Overall Total Time Pace
1 Blair Tate Greenville SC 471 43 35 24:53.7 8:02/M
2 Ines Mueller Hickory NC 836 45 59 27:20.1 8:49/M
3 Mindy Bolick Hickory NC 193 41 64 28:21.3 9:09/M
4 Catherine Hitchcock Hickory NC 279 43 70 28:49.5 9:18/M
5 Julie Harris Hickory NC 401 44 76 29:18.8 9:27/M
6 Sonya Kelly Hickory NC 177 43 81 29:27.6 9:30/M
7 Evangelina Rivera Newton NC 423 40 94 30:07.6 9:43/M
8 Heather Mills Hickory NC 459 44 106 30:39.1 9:53/M
9 Misa Shuford Hickory NC 97 44 107 30:39.1 9:53/M
10 Amy Guyer Taylorsville NC 77 41 113 30:50.5 9:57/M
11 Jana Dellinger NC 172 42 125 31:37.1 10:12/M
12 Lala Kozischek Hickory NC 357 47 131 31:53.3 10:17/M
13 Vera Staas Hickory NC 307 42 136 32:12.7 10:23/M
14 Kathrin Staas Hickory NC 306 44 146 32:45.6 10:34/M
15 Lori Alala Hickory NC 105 47 151 33:11.8 10:42/M
16 Susan Smith Claremont NC 305 42 159 33:40.1 10:52/M
17 Jody Frye Taylorsville NC 480 40 163 33:46.5 10:54/M
18 Marianna Geyer Hickory NC 200 47 165 33:47.9 10:54/M
19 Cee Lee Claremont NC 298 47 166 33:50.8 10:55/M
20 Lisa Eaton Hickory NC 350 42 173 34:24.5 11:06/M
21 Mitzie Schafer Prosperity SC 490 40 178 34:33.1 11:09/M
22 Meghan Young Hickory NC 208 41 203 35:39.7 11:30/M
23 Ashley Stahlschmidt Hickory NC 426 40 211 36:21.5 11:44/M
24 Jennifer Duralia Hickory NC 391 42 212 36:21.5 11:44/M
25 Robin Martin-Oakes NC 123 48 216 37:03.1 11:57/M
26 Ross Angie NC 107 49 231 37:58.3 12:15/M
27 Leigh Anne Charles Conover NC 36 42 236 38:33.2 12:26/M
28 Juliet Horan Hickory NC 119 44 238 38:33.9 12:26/M
29 Tina Bentley NC 108 43 243 39:07.4 12:37/M
30 Tiffany Parlier Hickory NC 50 42 250 39:37.0 12:47/M
31 Adele Barrier Hickory NC 348 43 258 39:54.3 12:52/M
32 Michele Loy Newton NC 361 45 259 39:56.3 12:53/M
33 Crystal Rogers Hickory NC 188 43 265 40:04.1 12:55/M
34 Karen Duckworth Hickory NC 389 40 269 40:19.1 13:00/M
35 Leslie Coffey NC 275 42 271 40:21.2 13:01/M
36 Samantah Fuentes NC 117 43 272 40:45.9 13:09/M
37 Melissa Gilchrist Lenoir NC 455 47 275 40:57.8 13:13/M
38 Dana Greene Lenoir NC 456 41 276 41:03.9 13:15/M
39 Barbara Price Newton NC 301 43 286 41:59.7 13:33/M
40 Marjorie Norman Hickory NC 420 41 288 42:20.1 13:39/M
41 Lucy Rodriguez Hickory NC 231 44 300 43:23.3 14:00/M
42 Beth Watson Hickory NC 191 47 302 43:27.7 14:01/M
43 Stacy Bernas Hickory NC 129 42 305 43:59.7 14:11/M
44 Brice Melton Hickory NC 416 44 308 44:06.6 14:14/M
45 Pam Shehan Granite Falls NC 92 44 320 46:23.7 14:58/M
46 Martha Day Hickory NC 387 48 326 46:53.6 15:07/M
47 Penny Church Taylorsville NC 133 46 327 47:33.1 15:20/M
48 Tina Shull Conover NC 232 47 331 48:33.2 15:40/M
49 Sheryl Niemczura Hickory NC 419 46 332 48:36.0 15:41/M
50 Nancy Bledsoe Hickory NC 63 44 336 49:35.9 16:00/M
51 Kay Loftin Conover NC 161 46 337 49:36.8 16:00/M
52 Leslie Huffman NC 42 49 350 50:21.5 16:15/M
53 Susan Bollinger Morganton NC 69 46 353 51:17.4 16:33/M
54 Courtney Branch Hickory NC 5 44 356 51:26.9 16:35/M
55 Lori Benfield Maiden NC 32 47 365 52:21.1 16:53/M
56 Suzanne Baer Hickory NC 31 42 366 52:24.1 16:54/M
57 Marsha Diamonti Hickory NC 156 47 367 52:30.8 16:56/M
58 Kelly Deffke Hickory NC 115 47 368 52:30.9 16:56/M
59 Elizabeth Johnson Hickory NC 159 45 372 52:32.8 16:57/M
60 Cecily Zagaroli Hickory NC 211 48 373 52:37.0 16:58/M
61 Dawn Balthis NC 216 45 374 52:39.4 16:59/M
62 Shoua Xiong Claremont NC 312 41 380 52:55.7 17:04/M
63 Tracie Dagenhart 441 45 381 52:58.8 17:05/M
64 Billi Shupe Conover NC 233 43 385 53:33.2 17:16/M
65 Hope Thornburg Cherryville NC 234 41 386 53:33.3 17:16/M
66 Elena Pritchard Hickory NC 343 44 387 53:49.5 17:22/M
67 Lisa Ortiz NC 288 40 394 54:35.5 17:36/M
68 Amy McDonald Taylorsville NC 45 44 395 54:39.8 17:38/M
69 Kelley Smith Hickory NC 166 48 400 55:03.9 17:45/M
70 Tracie Downey Connelly Springs NC 75 48 405 55:30.6 17:54/M
71 Tina Yandle Conover NC 104 47 406 55:32.7 17:55/M
72 Melissa Painchaud NC 186 40 411 56:03.4 18:05/M
73 Farrah Hartis 138 40 418 56:39.4 18:16/M
74 Marnie Wills Hickory NC 148 43 419 56:41.9 18:17/M
75 Jennifer Ly Catawba NC 410 42 427 1:00:39.4 19:34/M
76 Denise Clay Hickory NC 374 48 429 1:00:39.6 19:34/M
77 Jenni Wessong NC 325 43 438 1:06:55.0 21:35/M
Top

Male 40 to 49

Place Name City Bib No Age Overall Total Time Pace
1 Christopher Witke Hickory NC 435 41 5 20:54.4 6:45/M
2 Marty Coulter Hickory NC 379 42 9 22:03.2 7:07/M
3 Jason Reep Hickory NC 487 42 12 22:21.2 7:13/M
4 Thomas Shores Hickory NC 846 48 26 24:29.7 7:54/M
5 Christopher Holder Hickory NC 79 41 31 24:45.9 7:59/M
6 Bobby Dettelbach Hickory NC 195 47 36 24:56.0 8:03/M
7 David Duralia Hickory NC 390 43 53 26:46.1 8:38/M
8 William Bledsoe Hickory NC 65 46 66 28:33.5 9:13/M
9 Edward Niemczura Hickory NC 417 49 68 28:41.7 9:15/M
10 Roger Mueller Hickory NC 838 49 80 29:24.2 9:29/M
11 Thomas Huffman Hickory NC 408 43 92 30:05.9 9:42/M
12 J Scott Broome Hickory NC 19 49 110 30:43.4 9:55/M
13 Alex Shuford Hickory NC 94 42 114 30:51.7 9:57/M
14 Mark Coffey Hickory NC 276 49 126 31:46.1 10:15/M
15 John Mills Hickory NC 460 44 161 33:42.1 10:52/M
16 Stephen Eaton Hickory NC 352 43 174 34:24.7 11:06/M
17 Jason Schafer Prosperity SC 493 40 177 34:32.6 11:08/M
18 Brian Shehan Granite Falls NC 90 47 187 35:08.0 11:20/M
19 Brian Loy Newton NC 359 45 194 35:09.8 11:20/M
20 Toby Texer Hickory NC 291 47 206 35:46.3 11:32/M
21 Roger Young Hickory NC 209 41 207 35:46.6 11:32/M
22 Shawn Green Hudson NC 397 42 232 38:01.3 12:16/M
23 Ashley Starnes Taylorsville NC 98 41 234 38:30.8 12:25/M
24 Ross Chiles NC 271 48 248 39:36.3 12:46/M
25 Phillip Buckbee Morganton NC 819 41 255 39:51.7 12:51/M
26 William Price NC 81 49 321 46:35.9 15:02/M
27 Scott Bowman Taylorsville NC 71 48 345 50:03.5 16:09/M
28 Greg Diamonti Hickory NC 153 45 371 52:32.7 16:57/M
29 Richard Bryant 439 44 382 52:58.9 17:05/M
30 Joe Graham Hickory NC 341 44 430 1:02:08.6 20:03/M
Top

Female 50 to 59

Place Name City Bib No Age Overall Total Time Pace
1 Loretta Atkinson Newton NC 214 51 180 34:38.8 11:10/M
2 Penny Huffman Conover NC 229 54 190 35:08.7 11:20/M
3 Thu Ngo 49 52 205 35:42.6 11:31/M
4 Nina Greene Newton NC 76 59 221 37:11.8 12:00/M
5 Victoria Braswell Hickory NC 109 55 242 39:07.4 12:37/M
6 Sandra Lytton Claremont NC 300 57 245 39:16.0 12:40/M
7 Susan Rowe Hickory NC 425 53 278 41:24.1 13:21/M
8 Kimberly Pressley Taylorsville NC 472 53 284 41:41.6 13:27/M
9 Joanne King NC 331 51 291 42:41.6 13:46/M
10 Mary Kathryn Woods Newton NC 239 54 296 43:14.7 13:57/M
11 Elizabeth Van Horn Conover NC 236 55 303 43:33.8 14:03/M
12 Ileana Queen Valdese NC 82 51 311 44:56.2 14:30/M
13 Nancy Cannon Lenoir NC 72 51 322 46:38.0 15:03/M
14 Michelle Williams Hickory NC 60 50 323 46:46.8 15:05/M
15 Brenda Bowman Hickory NC 70 55 330 48:15.2 15:34/M
16 Kristy Connelly Newton NC 38 59 334 49:14.5 15:53/M
17 Lela MacIjewski Newton NC 44 52 335 49:14.7 15:53/M
18 Mary Jo Miller 489 57 340 49:41.0 16:02/M
19 Maria Arredondo Hickory NC 365 50 358 51:57.9 16:45/M
20 Jill Worley Hickory NC 168 54 369 52:31.2 16:56/M
21 Lauren Martin Hickory NC 411 50 379 52:50.7 17:03/M
22 Kathy Huffman Hickory NC 80 52 396 54:43.7 17:39/M
23 Avajean Wickes Hickory NC 57 55 397 54:47.6 17:40/M
24 Sandy Von Rentzell 447 54 414 56:21.4 18:11/M
25 Linda Lambert 444 59 416 56:21.7 18:11/M
26 Martha Austin Taylorsville NC 62 53 420 56:52.4 18:21/M
27 Deborah Roberts Hickory NC 85 55 421 56:53.0 18:21/M
28 Tracey Paul Newton NC 51 50 425 58:33.4 18:53/M
Top

Male 50 to 59

Place Name City Bib No Age Overall Total Time Pace
1 Danny Baucom Conover NC 240 55 11 22:12.7 7:10/M
2 Mark Hawkins Hickory NC 486 52 20 23:41.2 7:38/M
3 John Fish Hickory NC 478 59 29 24:42.7 7:58/M
4 Timothy Hicks Conover NC 297 53 30 24:43.9 7:58/M
5 Paul Thompson Newton NC 810 52 41 25:34.3 8:15/M
6 Michael Cline Hickory NC 73 52 118 30:57.9 9:59/M
7 Robert Jordan Hickory NC 409 51 122 31:33.6 10:11/M
8 John Rudolph Hickory NC 488 55 135 32:10.3 10:23/M
9 Peter Hirons Conover NC 355 50 196 35:11.4 11:21/M
10 Paul Woodrum Conover NC 436 58 197 35:15.3 11:22/M
11 Lanny Barnes Taylorsville NC 369 52 218 37:03.7 11:57/M
12 Todd Zagaroll Hickory NC 500 50 241 39:04.3 12:36/M
13 David Curry Maiden NC 114 59 273 40:47.4 13:09/M
14 Reginald Atkinson Newton NC 215 55 301 43:23.3 14:00/M
15 Hubert Day Hickory NC 386 56 306 44:00.4 14:12/M
16 Timothy Huffman NC 43 50 349 50:21.0 16:15/M
17 Scott Wickes Hickory NC 58 57 398 54:47.8 17:40/M
Top

Female 60 to 69

Place Name City Bib No Age Overall Total Time Pace
1 Susan Griffis Hickory NC 398 65 105 30:30.7 9:50/M
2 Deborah Mason Hudson NC 412 65 183 34:51.4 11:15/M
3 Debbie Rhodarmer NC 335 63 324 46:48.0 15:06/M
4 Sandra Beal NC 336 60 333 48:56.3 15:47/M
5 Rhonda Hull Hickory NC 282 62 378 52:44.2 17:01/M
6 Judy Van Horn NC 344 66 431 1:02:09.8 20:03/M
Top

Male 60 to 69

Place Name City Bib No Age Overall Total Time Pace
1 Ted Cooke Hickory NC 377 65 54 26:55.2 8:41/M
2 Thomas Griffis Hickory NC 399 66 97 30:23.9 9:48/M
3 Jimmy Banner Morganton NC 368 69 314 45:12.5 14:35/M
4 Melvin Williams Hickory NC 59 62 325 46:49.8 15:06/M
Top

Male 70 and over

Place Name City Bib No Age Overall Total Time Pace
1 Wilton Scronce Vale NC 304 71 147 32:45.8 10:34/M
2 Byron Logan Hickory NC 479 89 342 50:02.4 16:08/M